Terminal Aerodrome Forecast
Issued by NWS

Home | Current Version | Previous Version | Text Only | Print | Product List | Glossary On
Versions: 1 2 3 4 5 6 7 8 9 10 11 12 13 14 15 16 17 18 19 20
000
FTUS42 KFFC 181600 AAA
TAFFTY
TAF AMD
KFTY 181608Z 1816/1912 08010KT 6SM -RA BR OVC040
     FM181800 06011G20KT 5SM SHRA OVC015
     FM182300 05014G24KT 4SM SHRA BR OVC008
     FM190200 05012G22KT 3SM SHRA BR OVC008=

USA.gov is the U.S. government's official web portal to all federal, state and local government web resources and services.